Back O'bowley, United Kingdom
Current Conditions -  °F | °C
As of 2:50 PM on Friday 19 Dec 2014 (Local Time) from EGNO Reporting Station
Broken Clouds Broken Clouds  
Wind Chill:   Ceiling: 3500
Heat Index:   Visibility: 6mi
Dew Point:   Wind: 24mph
Humidity: 71%   Direction: 270°W
Pressure: 29.91"   Gusts: NA
Location:  53.78°N, 2.41°W
Report Text: EGNO 191450Z 27021KT 9999 FEW008 BKN035 08/03 Q1013
Loading
Personal Weather Stations






























Interactive Weather Map New forecast layout! Learn more

10-Day Weather Forecast

Advertisements
Track Severe Weather on mobile